createdAt,value
2016-12-10T00:06:31.478Z,0
2016-12-10T00:16:45.462Z,0
2016-12-10T00:27:00.249Z,0
2016-12-10T00:37:14.352Z,0
2016-12-10T00:47:28.084Z,0
2016-12-10T00:57:41.184Z,0
2016-12-10T01:07:55.062Z,0
2016-12-10T01:18:08.637Z,0
2016-12-10T01:28:22.743Z,0
2016-12-10T01:38:37.071Z,0
2016-12-10T01:48:51.602Z,0
2016-12-10T01:59:04.543Z,0
2016-12-10T02:09:18.356Z,0
2016-12-10T02:19:33.248Z,0
2016-12-10T02:29:47.038Z,0
2016-12-10T02:40:00.554Z,0
2016-12-10T02:50:14.848Z,0
2016-12-10T03:00:28.746Z,0
2016-12-10T03:10:43.507Z,0
2016-12-10T03:20:57.408Z,0
2016-12-10T03:31:10.826Z,0
2016-12-10T03:41:24.382Z,0
2016-12-10T03:51:38.982Z,0
2016-12-10T04:01:53.013Z,0
2016-12-10T04:12:07.732Z,0
2016-12-10T04:22:21.571Z,0
2016-12-10T04:32:34.752Z,0
2016-12-10T04:42:49.065Z,0
2016-12-10T04:53:02.511Z,0
2016-12-10T05:03:16.964Z,0
2016-12-10T05:13:31.276Z,0
2016-12-10T05:23:46.345Z,0
2016-12-10T05:34:01.017Z,0
2016-12-10T05:44:16.143Z,0
2016-12-10T05:54:29.763Z,0
2016-12-10T06:04:43.575Z,0
2016-12-10T06:14:58.710Z,0
2016-12-10T06:25:12.691Z,0
2016-12-10T06:35:26.842Z,0
2016-12-10T06:45:41.375Z,0
2016-12-10T06:55:55.362Z,4
2016-12-10T07:06:09.794Z,28
2016-12-10T07:16:24.262Z,100
2016-12-10T07:26:37.761Z,240
2016-12-10T07:36:51.380Z,536
2016-12-10T07:47:05.283Z,936
2016-12-10T07:57:18.549Z,1176
2016-12-10T08:07:31.928Z,2652
2016-12-10T08:17:45.391Z,3560
2016-12-10T08:27:59.842Z,3652
2016-12-10T08:38:13.276Z,4160
2016-12-10T08:48:26.984Z,5572
2016-12-10T08:58:40.951Z,6128
2016-12-10T09:08:55.235Z,7340
2016-12-10T09:19:08.862Z,6708
2016-12-10T09:29:22.619Z,7852
2016-12-10T09:39:36.428Z,10092
2016-12-10T09:49:50.663Z,7724
2016-12-10T10:00:04.369Z,6492
2016-12-10T10:10:17.557Z,6748
2016-12-10T10:20:31.051Z,9292
2016-12-10T10:30:44.975Z,9388
2016-12-10T10:40:59.832Z,6532
2016-12-10T10:51:14.597Z,7848
2016-12-10T11:01:29.093Z,8156
2016-12-10T11:11:44.067Z,8224
2016-12-10T11:21:58.859Z,9200
2016-12-10T11:32:12.216Z,10164
2016-12-10T11:42:25.637Z,9860
2016-12-10T11:52:40.401Z,2796
2016-12-10T12:02:54.820Z,2280
2016-12-10T12:13:08.840Z,1568
2016-12-10T12:23:22.232Z,1768
2016-12-10T12:33:36.446Z,1960
2016-12-10T12:43:50.872Z,1200
2016-12-10T12:54:05.423Z,1212
2016-12-10T13:04:19.253Z,1332
2016-12-10T13:14:33.752Z,1296
2016-12-10T13:24:48.051Z,1584
2016-12-10T13:35:01.477Z,1008
2016-12-10T13:45:16.138Z,780
2016-12-10T13:55:30.316Z,1092
2016-12-10T14:05:44.355Z,780
2016-12-10T14:15:57.521Z,1060
2016-12-10T14:26:11.032Z,604
2016-12-10T14:36:24.968Z,348
2016-12-10T14:46:38.272Z,388
2016-12-10T14:56:52.032Z,300
2016-12-10T15:07:05.410Z,112
2016-12-10T15:17:18.800Z,72
2016-12-10T15:27:32.295Z,32
2016-12-10T15:37:46.899Z,8
2016-12-10T15:48:01.838Z,0
2016-12-10T15:58:15.094Z,0
2016-12-10T16:08:29.474Z,0
2016-12-10T16:18:43.834Z,0
2016-12-10T16:28:57.008Z,0
2016-12-10T16:39:10.155Z,0
2016-12-10T16:49:23.818Z,0
2016-12-10T16:59:37.727Z,0
2016-12-10T17:09:52.499Z,0
2016-12-10T17:20:06.578Z,0
2016-12-10T17:30:20.853Z,0
2016-12-10T17:40:33.917Z,0
2016-12-10T17:50:48.426Z,0
2016-12-10T18:01:02.526Z,0
2016-12-10T18:11:16.125Z,0
2016-12-10T18:21:30.712Z,0
2016-12-10T18:31:44.066Z,0
2016-12-10T18:41:57.883Z,0
2016-12-10T18:52:11.004Z,0
2016-12-10T19:02:25.605Z,0
2016-12-10T19:12:39.315Z,0
2016-12-10T19:22:53.257Z,0
2016-12-10T19:33:07.455Z,0
2016-12-10T19:43:22.187Z,0
2016-12-10T19:53:36.583Z,0
2016-12-10T20:03:49.857Z,0
2016-12-10T20:14:03.095Z,0
2016-12-10T20:24:17.473Z,0
2016-12-10T20:34:31.109Z,0
2016-12-10T20:44:44.977Z,0
2016-12-10T20:54:59.648Z,0
2016-12-10T21:05:14.400Z,0
2016-12-10T21:15:29.157Z,0
